sensor_id;sensor_type;location;lat;lon;timestamp;pressure;altitude;pressure_sealevel;temperature;humidity
68594;BME280;55563;52.416;13.548;2023-02-28T00:00:12;102700.34;;;0.14;100.00
68594;BME280;55563;52.416;13.548;2023-02-28T00:02:13;102708.63;;;0.18;100.00
68594;BME280;55563;52.416;13.548;2023-02-28T00:04:14;102708.47;;;0.19;100.00
68594;BME280;55563;52.416;13.548;2023-02-28T00:06:14;102709.28;;;0.20;100.00
68594;BME280;55563;52.416;13.548;2023-02-28T00:08:15;102711.84;;;0.29;100.00
68594;BME280;55563;52.416;13.548;2023-02-28T00:10:20;102707.09;;;0.25;100.00
68594;BME280;55563;52.416;13.548;2023-02-28T00:12:21;102706.16;;;0.16;100.00
68594;BME280;55563;52.416;13.548;2023-02-28T00:14:22;102711.25;;;-0.02;100.00
68594;BME280;55563;52.416;13.548;2023-02-28T00:16:23;102715.69;;;0.06;100.00
68594;BME280;55563;52.416;13.548;2023-02-28T00:18:24;102713.00;;;0.08;100.00
68594;BME280;55563;52.416;13.548;2023-02-28T00:20:25;102712.16;;;0.07;100.00
68594;BME280;55563;52.416;13.548;2023-02-28T00:22:25;102719.50;;;0.12;100.00
68594;BME280;55563;52.416;13.548;2023-02-28T00:24:26;102715.97;;;0.13;100.00
68594;BME280;55563;52.416;13.548;2023-02-28T00:26:27;102710.28;;;0.09;100.00
68594;BME280;55563;52.416;13.548;2023-02-28T00:28:28;102711.78;;;0.02;100.00
68594;BME280;55563;52.416;13.548;2023-02-28T00:30:29;102715.03;;;0.04;100.00
68594;BME280;55563;52.416;13.548;2023-02-28T00:32:29;102718.81;;;0.10;100.00
68594;BME280;55563;52.416;13.548;2023-02-28T00:34:30;102711.06;;;0.10;100.00
68594;BME280;55563;52.416;13.548;2023-02-28T00:36:31;102713.13;;;0.06;100.00
68594;BME280;55563;52.416;13.548;2023-02-28T00:38:31;102708.78;;;0.07;100.00
68594;BME280;55563;52.416;13.548;2023-02-28T00:40:32;102714.22;;;0.04;100.00
68594;BME280;55563;52.416;13.548;2023-02-28T00:42:34;102717.47;;;0.06;100.00
68594;BME280;55563;52.416;13.548;2023-02-28T00:44:35;102720.06;;;0.06;100.00
68594;BME280;55563;52.416;13.548;2023-02-28T00:46:35;102716.25;;;0.10;100.00
68594;BME280;55563;52.416;13.548;2023-02-28T00:48:36;102712.72;;;0.11;100.00
68594;BME280;55563;52.416;13.548;2023-02-28T00:50:37;102716.53;;;0.07;100.00
68594;BME280;55563;52.416;13.548;2023-02-28T00:52:38;102714.88;;;0.06;100.00
68594;BME280;55563;52.416;13.548;2023-02-28T00:54:39;102715.03;;;0.04;100.00
68594;BME280;55563;52.416;13.548;2023-02-28T00:56:41;102716.28;;;0.00;100.00
68594;BME280;55563;52.416;13.548;2023-02-28T00:58:42;102713.28;;;0.05;100.00
68594;BME280;55563;52.416;13.548;2023-02-28T01:00:42;102720.34;;;0.03;100.00
68594;BME280;55563;52.416;13.548;2023-02-28T01:02:45;102720.63;;;-0.01;100.00
68594;BME280;55563;52.416;13.548;2023-02-28T01:04:46;102717.88;;;0.01;100.00
68594;BME280;55563;52.416;13.548;2023-02-28T01:06:47;102719.41;;;0.04;100.00
68594;BME280;55563;52.416;13.548;2023-02-28T01:08:48;102715.59;;;-0.02;100.00
68594;BME280;55563;52.416;13.548;2023-02-28T01:10:49;102708.78;;;-0.13;100.00
68594;BME280;55563;52.416;13.548;2023-02-28T01:12:50;102720.06;;;-0.14;100.00
68594;BME280;55563;52.416;13.548;2023-02-28T01:14:50;102710.44;;;-0.12;100.00
68594;BME280;55563;52.416;13.548;2023-02-28T01:16:51;102705.38;;;-0.13;100.00
68594;BME280;55563;52.416;13.548;2023-02-28T01:18:52;102703.75;;;-0.14;100.00
68594;BME280;55563;52.416;13.548;2023-02-28T01:20:53;102716.66;;;-0.24;100.00
68594;BME280;55563;52.416;13.548;2023-02-28T01:22:53;102702.28;;;-0.26;100.00
68594;BME280;55563;52.416;13.548;2023-02-28T01:24:54;102705.25;;;-0.40;100.00
68594;BME280;55563;52.416;13.548;2023-02-28T01:26:55;102710.69;;;-0.53;100.00
68594;BME280;55563;52.416;13.548;2023-02-28T01:28:56;102708.66;;;-0.50;100.00
68594;BME280;55563;52.416;13.548;2023-02-28T01:30:56;102709.72;;;-0.52;100.00
68594;BME280;55563;52.416;13.548;2023-02-28T01:32:58;102706.09;;;-0.30;100.00
68594;BME280;55563;52.416;13.548;2023-02-28T01:34:59;102702.28;;;-0.36;100.00
68594;BME280;55563;52.416;13.548;2023-02-28T01:37:00;102705.13;;;-0.39;100.00
68594;BME280;55563;52.416;13.548;2023-02-28T01:39:01;102694.41;;;-0.34;100.00
68594;BME280;55563;52.416;13.548;2023-02-28T01:41:03;102696.28;;;-0.36;100.00
68594;BME280;55563;52.416;13.548;2023-02-28T01:43:09;102703.06;;;-0.55;100.00
68594;BME280;55563;52.416;13.548;2023-02-28T01:45:25;102704.56;;;-0.33;100.00
68594;BME280;55563;52.416;13.548;2023-02-28T01:47:30;102700.38;;;-0.24;100.00
68594;BME280;55563;52.416;13.548;2023-02-28T01:49:32;102706.50;;;-0.25;100.00
68594;BME280;55563;52.416;13.548;2023-02-28T01:51:41;102699.69;;;-0.26;100.00
68594;BME280;55563;52.416;13.548;2023-02-28T01:53:49;102690.72;;;-0.22;100.00
68594;BME280;55563;52.416;13.548;2023-02-28T01:55:53;102693.97;;;-0.20;100.00
68594;BME280;55563;52.416;13.548;2023-02-28T01:57:55;102700.91;;;-0.30;100.00
68594;BME280;55563;52.416;13.548;2023-02-28T02:00:00;102702.81;;;-0.42;100.00
68594;BME280;55563;52.416;13.548;2023-02-28T02:02:25;102697.78;;;-0.53;100.00
68594;BME280;55563;52.416;13.548;2023-02-28T02:04:32;102701.03;;;-0.61;100.00
68594;BME280;55563;52.416;13.548;2023-02-28T02:06:40;102703.19;;;-0.56;100.00
68594;BME280;55563;52.416;13.548;2023-02-28T02:08:44;102699.94;;;-0.58;100.00
68594;BME280;55563;52.416;13.548;2023-02-28T02:10:49;102698.56;;;-0.62;100.00
68594;BME280;55563;52.416;13.548;2023-02-28T02:17:42;102707.13;;;-0.71;100.00
68594;BME280;55563;52.416;13.548;2023-02-28T02:20:31;102703.88;;;-0.73;100.00
68594;BME280;55563;52.416;13.548;2023-02-28T02:32:50;102693.22;;;-0.90;100.00
68594;BME280;55563;52.416;13.548;2023-02-28T02:35:25;102697.78;;;-1.12;100.00
68594;BME280;55563;52.416;13.548;2023-02-28T02:37:51;102703.09;;;-1.04;100.00
68594;BME280;55563;52.416;13.548;2023-02-28T02:40:00;102702.19;;;-0.94;100.00
68594;BME280;55563;52.416;13.548;2023-02-28T02:42:13;102702.16;;;-1.03;100.00
68594;BME280;55563;52.416;13.548;2023-02-28T02:44:21;102698.34;;;-1.09;100.00
68594;BME280;55563;52.416;13.548;2023-02-28T02:46:29;102689.78;;;-1.09;100.00
68594;BME280;55563;52.416;13.548;2023-02-28T02:48:35;102690.88;;;-1.12;100.00
68594;BME280;55563;52.416;13.548;2023-02-28T02:50:39;102690.88;;;-1.12;100.00
68594;BME280;55563;52.416;13.548;2023-02-28T02:52:45;102696.84;;;-1.11;100.00
68594;BME280;55563;52.416;13.548;2023-02-28T02:54:48;102699.41;;;-1.21;100.00
68594;BME280;55563;52.416;13.548;2023-02-28T02:56:51;102692.94;;;-1.36;100.00
68594;BME280;55563;52.416;13.548;2023-02-28T02:58:55;102696.59;;;-1.69;100.00
68594;BME280;55563;52.416;13.548;2023-02-28T03:01:00;102706.19;;;-1.71;100.00
68594;BME280;55563;52.416;13.548;2023-02-28T03:03:02;102704.63;;;-1.62;100.00
68594;BME280;55563;52.416;13.548;2023-02-28T03:05:09;102699.41;;;-1.51;100.00
68594;BME280;55563;52.416;13.548;2023-02-28T03:07:14;102701.09;;;-1.61;100.00
68594;BME280;55563;52.416;13.548;2023-02-28T03:09:15;102702.34;;;-1.56;100.00
68594;BME280;55563;52.416;13.548;2023-02-28T03:11:16;102695.59;;;-1.47;100.00
68594;BME280;55563;52.416;13.548;2023-02-28T03:18:29;102701.03;;;-1.71;100.00
68594;BME280;55563;52.416;13.548;2023-02-28T03:20:49;102710.56;;;-1.92;100.00
68594;BME280;55563;52.416;13.548;2023-02-28T03:22:58;102709.03;;;-1.95;100.00
68594;BME280;55563;52.416;13.548;2023-02-28T03:25:25;102716.03;;;-2.06;100.00
68594;BME280;55563;52.416;13.548;2023-02-28T03:27:30;102710.69;;;-1.94;100.00
68594;BME280;55563;52.416;13.548;2023-02-28T03:29:43;102714.00;;;-1.82;100.00
68594;BME280;55563;52.416;13.548;2023-02-28T03:31:52;102705.31;;;-1.81;100.00
68594;BME280;55563;52.416;13.548;2023-02-28T03:34:03;102703.94;;;-1.85;100.00
68594;BME280;55563;52.416;13.548;2023-02-28T03:36:09;102715.19;;;-2.07;100.00
68594;BME280;55563;52.416;13.548;2023-02-28T03:38:18;102711.88;;;-1.98;100.00
68594;BME280;55563;52.416;13.548;2023-02-28T03:40:22;102714.31;;;-1.96;100.00
68594;BME280;55563;52.416;13.548;2023-02-28T03:42:27;102713.69;;;-2.09;100.00
68594;BME280;55563;52.416;13.548;2023-02-28T03:44:37;102720.84;;;-2.13;100.00
68594;BME280;55563;52.416;13.548;2023-02-28T03:46:46;102719.19;;;-2.14;100.00
68594;BME280;55563;52.416;13.548;2023-02-28T03:48:55;102718.00;;;-2.10;100.00
68594;BME280;55563;52.416;13.548;2023-02-28T03:50:59;102724.03;;;-2.21;100.00
68594;BME280;55563;52.416;13.548;2023-02-28T03:53:06;102723.00;;;-2.29;100.00
68594;BME280;55563;52.416;13.548;2023-02-28T03:55:11;102722.44;;;-2.33;100.00
68594;BME280;55563;52.416;13.548;2023-02-28T03:59:39;102731.81;;;-2.32;100.00
68594;BME280;55563;52.416;13.548;2023-02-28T04:01:45;102725.56;;;-2.29;100.00
68594;BME280;55563;52.416;13.548;2023-02-28T04:03:47;102725.28;;;-2.36;100.00
68594;BME280;55563;52.416;13.548;2023-02-28T04:05:52;102726.19;;;-2.37;100.00
68594;BME280;55563;52.416;13.548;2023-02-28T04:07:53;102732.28;;;-2.38;100.00
68594;BME280;55563;52.416;13.548;2023-02-28T04:09:54;102720.34;;;-2.39;100.00
68594;BME280;55563;52.416;13.548;2023-02-28T04:11:56;102728.59;;;-2.45;100.00
68594;BME280;55563;52.416;13.548;2023-02-28T04:13:57;102730.19;;;-2.44;100.00
68594;BME280;55563;52.416;13.548;2023-02-28T04:15:58;102736.03;;;-2.42;100.00
68594;BME280;55563;52.416;13.548;2023-02-28T04:17:58;102732.44;;;-2.50;100.00
68594;BME280;55563;52.416;13.548;2023-02-28T04:19:59;102733.72;;;-2.45;100.00
68594;BME280;55563;52.416;13.548;2023-02-28T04:22:00;102730.78;;;-2.40;100.00
68594;BME280;55563;52.416;13.548;2023-02-28T04:24:01;102723.63;;;-2.37;100.00
68594;BME280;55563;52.416;13.548;2023-02-28T04:26:03;102736.44;;;-2.57;100.00
68594;BME280;55563;52.416;13.548;2023-02-28T04:28:04;102734.13;;;-2.60;100.00
68594;BME280;55563;52.416;13.548;2023-02-28T04:30:04;102740.28;;;-2.52;100.00
68594;BME280;55563;52.416;13.548;2023-02-28T04:32:05;102735.72;;;-2.48;100.00
68594;BME280;55563;52.416;13.548;2023-02-28T04:34:06;102744.16;;;-2.57;100.00
68594;BME280;55563;52.416;13.548;2023-02-28T04:36:08;102735.97;;;-2.63;100.00
68594;BME280;55563;52.416;13.548;2023-02-28T04:38:09;102741.59;;;-2.57;100.00
68594;BME280;55563;52.416;13.548;2023-02-28T04:40:10;102740.75;;;-2.58;100.00
68594;BME280;55563;52.416;13.548;2023-02-28T04:42:12;102743.59;;;-2.61;100.00
68594;BME280;55563;52.416;13.548;2023-02-28T04:44:13;102745.91;;;-2.58;100.00
68594;BME280;55563;52.416;13.548;2023-02-28T04:46:14;102738.06;;;-2.56;100.00
68594;BME280;55563;52.416;13.548;2023-02-28T04:48:15;102740.66;;;-2.68;100.00
68594;BME280;55563;52.416;13.548;2023-02-28T04:50:16;102745.25;;;-2.71;100.00
68594;BME280;55563;52.416;13.548;2023-02-28T04:52:17;102751.47;;;-2.74;100.00
68594;BME280;55563;52.416;13.548;2023-02-28T04:54:17;102751.09;;;-2.69;100.00
68594;BME280;55563;52.416;13.548;2023-02-28T04:56:18;102750.53;;;-2.84;100.00
68594;BME280;55563;52.416;13.548;2023-02-28T04:58:19;102751.69;;;-2.77;100.00
68594;BME280;55563;52.416;13.548;2023-02-28T05:00:20;102767.25;;;-2.89;100.00
68594;BME280;55563;52.416;13.548;2023-02-28T05:02:21;102754.03;;;-2.85;100.00
68594;BME280;55563;52.416;13.548;2023-02-28T05:04:21;102756.97;;;-2.89;100.00
68594;BME280;55563;52.416;13.548;2023-02-28T05:06:26;102757.06;;;-2.91;100.00
68594;BME280;55563;52.416;13.548;2023-02-28T05:08:26;102759.53;;;-3.00;100.00
68594;BME280;55563;52.416;13.548;2023-02-28T05:10:30;102755.47;;;-3.03;100.00
68594;BME280;55563;52.416;13.548;2023-02-28T05:12:30;102762.94;;;-3.00;100.00
68594;BME280;55563;52.416;13.548;2023-02-28T05:14:31;102755.31;;;-3.01;100.00
68594;BME280;55563;52.416;13.548;2023-02-28T05:16:32;102757.19;;;-3.03;100.00
68594;BME280;55563;52.416;13.548;2023-02-28T05:18:33;102760.34;;;-3.00;100.00
68594;BME280;55563;52.416;13.548;2023-02-28T05:20:33;102762.31;;;-2.92;100.00
68594;BME280;55563;52.416;13.548;2023-02-28T05:22:34;102758.47;;;-2.87;100.00
68594;BME280;55563;52.416;13.548;2023-02-28T05:24:35;102759.41;;;-2.99;100.00
68594;BME280;55563;52.416;13.548;2023-02-28T05:26:38;102761.78;;;-3.07;100.00
68594;BME280;55563;52.416;13.548;2023-02-28T05:28:39;102758.03;;;-3.03;100.00
68594;BME280;55563;52.416;13.548;2023-02-28T05:30:40;102758.13;;;-3.16;100.00
68594;BME280;55563;52.416;13.548;2023-02-28T05:32:41;102764.53;;;-3.21;100.00
68594;BME280;55563;52.416;13.548;2023-02-28T05:34:44;102760.00;;;-3.18;100.00
68594;BME280;55563;52.416;13.548;2023-02-28T05:36:45;102771.13;;;-3.17;100.00
68594;BME280;55563;52.416;13.548;2023-02-28T05:38:48;102763.72;;;-3.11;100.00
68594;BME280;55563;52.416;13.548;2023-02-28T05:40:49;102763.50;;;-3.19;100.00
68594;BME280;55563;52.416;13.548;2023-02-28T05:42:50;102769.22;;;-3.15;100.00
68594;BME280;55563;52.416;13.548;2023-02-28T05:44:51;102770.97;;;-3.16;100.00
68594;BME280;55563;52.416;13.548;2023-02-28T05:46:52;102761.16;;;-3.11;100.00
68594;BME280;55563;52.416;13.548;2023-02-28T05:48:53;102763.97;;;-3.14;100.00
68594;BME280;55563;52.416;13.548;2023-02-28T05:50:53;102765.38;;;-3.10;100.00
68594;BME280;55563;52.416;13.548;2023-02-28T05:52:54;102777.31;;;-3.09;100.00
68594;BME280;55563;52.416;13.548;2023-02-28T05:54:55;102779.41;;;-3.14;100.00
68594;BME280;55563;52.416;13.548;2023-02-28T05:56:55;102775.91;;;-3.13;100.00
68594;BME280;55563;52.416;13.548;2023-02-28T05:59:00;102775.78;;;-3.11;100.00
68594;BME280;55563;52.416;13.548;2023-02-28T06:01:19;102776.13;;;-3.16;100.00
68594;BME280;55563;52.416;13.548;2023-02-28T06:03:20;102785.22;;;-3.12;100.00
68594;BME280;55563;52.416;13.548;2023-02-28T06:05:21;102784.09;;;-3.08;100.00
68594;BME280;55563;52.416;13.548;2023-02-28T06:07:22;102785.34;;;-3.02;100.00
68594;BME280;55563;52.416;13.548;2023-02-28T06:09:23;102780.00;;;-2.99;100.00
68594;BME280;55563;52.416;13.548;2023-02-28T06:11:25;102784.22;;;-2.98;100.00
68594;BME280;55563;52.416;13.548;2023-02-28T06:13:27;102785.03;;;-2.97;100.00
68594;BME280;55563;52.416;13.548;2023-02-28T06:15:29;102785.97;;;-2.98;100.00
68594;BME280;55563;52.416;13.548;2023-02-28T06:17:30;102778.56;;;-2.92;100.00
68594;BME280;55563;52.416;13.548;2023-02-28T06:19:30;102782.78;;;-2.91;100.00
68594;BME280;55563;52.416;13.548;2023-02-28T06:21:31;102786.19;;;-2.90;100.00
68594;BME280;55563;52.416;13.548;2023-02-28T06:23:32;102791.09;;;-2.87;100.00
68594;BME280;55563;52.416;13.548;2023-02-28T06:25:33;102788.41;;;-2.86;100.00
68594;BME280;55563;52.416;13.548;2023-02-28T06:27:34;102789.81;;;-2.82;100.00
68594;BME280;55563;52.416;13.548;2023-02-28T06:29:35;102793.78;;;-2.78;100.00
68594;BME280;55563;52.416;13.548;2023-02-28T06:31:36;102798.66;;;-2.52;100.00
68594;BME280;55563;52.416;13.548;2023-02-28T06:33:38;102792.78;;;-1.48;100.00
68594;BME280;55563;52.416;13.548;2023-02-28T06:35:39;102792.59;;;0.14;100.00
68594;BME280;55563;52.416;13.548;2023-02-28T06:37:40;102792.38;;;1.37;100.00
68594;BME280;55563;52.416;13.548;2023-02-28T06:39:40;102785.03;;;2.64;100.00
68594;BME280;55563;52.416;13.548;2023-02-28T06:41:41;102795.28;;;3.26;100.00
68594;BME280;55563;52.416;13.548;2023-02-28T06:43:43;102790.38;;;3.73;100.00
68594;BME280;55563;52.416;13.548;2023-02-28T06:45:44;102796.00;;;3.60;100.00
68594;BME280;55563;52.416;13.548;2023-02-28T06:47:44;102792.47;;;2.85;100.00
68594;BME280;55563;52.416;13.548;2023-02-28T06:49:45;102790.19;;;2.13;100.00
68594;BME280;55563;52.416;13.548;2023-02-28T06:51:46;102795.34;;;0.78;100.00
68594;BME280;55563;52.416;13.548;2023-02-28T06:53:46;102800.88;;;1.29;100.00
68594;BME280;55563;52.416;13.548;2023-02-28T06:55:47;102809.13;;;1.43;100.00
68594;BME280;55563;52.416;13.548;2023-02-28T06:57:48;102804.59;;;0.80;100.00
68594;BME280;55563;52.416;13.548;2023-02-28T06:59:50;102806.78;;;0.75;100.00
68594;BME280;55563;52.416;13.548;2023-02-28T07:01:51;102804.19;;;0.75;100.00
68594;BME280;55563;52.416;13.548;2023-02-28T07:03:52;102806.31;;;1.54;100.00
68594;BME280;55563;52.416;13.548;2023-02-28T07:05:53;102815.50;;;1.48;100.00
68594;BME280;55563;52.416;13.548;2023-02-28T07:07:53;102814.72;;;1.38;100.00
68594;BME280;55563;52.416;13.548;2023-02-28T07:09:54;102810.63;;;0.71;100.00
68594;BME280;55563;52.416;13.548;2023-02-28T07:11:55;102813.50;;;0.39;100.00
68594;BME280;55563;52.416;13.548;2023-02-28T07:13:56;102818.16;;;0.17;100.00
68594;BME280;55563;52.416;13.548;2023-02-28T07:15:59;102810.41;;;0.07;100.00
68594;BME280;55563;52.416;13.548;2023-02-28T07:18:00;102814.50;;;0.00;100.00
68594;BME280;55563;52.416;13.548;2023-02-28T07:20:01;102812.69;;;-0.09;100.00
68594;BME280;55563;52.416;13.548;2023-02-28T07:22:02;102807.53;;;0.00;100.00
68594;BME280;55563;52.416;13.548;2023-02-28T07:24:03;102815.97;;;-0.07;100.00
68594;BME280;55563;52.416;13.548;2023-02-28T07:26:05;102807.94;;;-0.14;100.00
68594;BME280;55563;52.416;13.548;2023-02-28T07:28:07;102809.03;;;-0.07;100.00
68594;BME280;55563;52.416;13.548;2023-02-28T07:30:08;102817.22;;;-0.02;100.00
68594;BME280;55563;52.416;13.548;2023-02-28T07:32:09;102808.50;;;-0.01;100.00
68594;BME280;55563;52.416;13.548;2023-02-28T07:34:09;102812.44;;;0.04;100.00
68594;BME280;55563;52.416;13.548;2023-02-28T07:36:13;102818.69;;;0.01;100.00
68594;BME280;55563;52.416;13.548;2023-02-28T07:38:15;102821.16;;;0.03;100.00
68594;BME280;55563;52.416;13.548;2023-02-28T07:40:17;102810.13;;;0.00;100.00
68594;BME280;55563;52.416;13.548;2023-02-28T07:42:18;102815.44;;;0.09;100.00
68594;BME280;55563;52.416;13.548;2023-02-28T07:44:19;102822.91;;;0.12;100.00
68594;BME280;55563;52.416;13.548;2023-02-28T07:46:19;102818.69;;;0.20;100.00
68594;BME280;55563;52.416;13.548;2023-02-28T07:48:21;102826.19;;;0.33;100.00
68594;BME280;55563;52.416;13.548;2023-02-28T07:50:22;102819.63;;;0.29;100.00
68594;BME280;55563;52.416;13.548;2023-02-28T07:52:23;102814.75;;;0.26;100.00
68594;BME280;55563;52.416;13.548;2023-02-28T07:54:24;102823.31;;;0.46;100.00
68594;BME280;55563;52.416;13.548;2023-02-28T07:56:25;102822.38;;;0.47;100.00
68594;BME280;55563;52.416;13.548;2023-02-28T07:58:27;102819.06;;;0.54;100.00
68594;BME280;55563;52.416;13.548;2023-02-28T08:00:28;102825.59;;;0.58;100.00
68594;BME280;55563;52.416;13.548;2023-02-28T08:02:29;102817.44;;;0.53;100.00
68594;BME280;55563;52.416;13.548;2023-02-28T08:04:32;102822.34;;;0.56;100.00
68594;BME280;55563;52.416;13.548;2023-02-28T08:06:33;102827.13;;;0.61;100.00
68594;BME280;55563;52.416;13.548;2023-02-28T08:08:33;102828.03;;;0.79;100.00
68594;BME280;55563;52.416;13.548;2023-02-28T08:10:34;102829.34;;;0.93;100.00
68594;BME280;55563;52.416;13.548;2023-02-28T08:12:35;102830.25;;;1.01;100.00
68594;BME280;55563;52.416;13.548;2023-02-28T08:14:37;102828.09;;;0.97;100.00
68594;BME280;55563;52.416;13.548;2023-02-28T08:16:38;102828.53;;;0.92;100.00
68594;BME280;55563;52.416;13.548;2023-02-28T08:18:39;102829.44;;;1.10;100.00
68594;BME280;55563;52.416;13.548;2023-02-28T08:20:40;102835.88;;;1.34;100.00
68594;BME280;55563;52.416;13.548;2023-02-28T08:22:40;102832.97;;;1.91;100.00
68594;BME280;55563;52.416;13.548;2023-02-28T08:24:42;102829.53;;;3.21;100.00
68594;BME280;55563;52.416;13.548;2023-02-28T08:26:43;102826.56;;;3.58;100.00
68594;BME280;55563;52.416;13.548;2023-02-28T08:28:44;102821.59;;;3.31;100.00
68594;BME280;55563;52.416;13.548;2023-02-28T08:30:45;102827.53;;;2.81;100.00
68594;BME280;55563;52.416;13.548;2023-02-28T08:32:46;102826.41;;;2.40;100.00
68594;BME280;55563;52.416;13.548;2023-02-28T08:34:46;102827.25;;;2.05;100.00
68594;BME280;55563;52.416;13.548;2023-02-28T08:36:47;102836.50;;;1.72;100.00
68594;BME280;55563;52.416;13.548;2023-02-28T08:38:48;102840.75;;;1.64;100.00
68594;BME280;55563;52.416;13.548;2023-02-28T08:40:48;102835.00;;;1.70;100.00
68594;BME280;55563;52.416;13.548;2023-02-28T08:42:49;102835.56;;;1.64;100.00
68594;BME280;55563;52.416;13.548;2023-02-28T08:44:50;102835.19;;;1.86;100.00
68594;BME280;55563;52.416;13.548;2023-02-28T08:46:51;102837.84;;;1.77;100.00
68594;BME280;55563;52.416;13.548;2023-02-28T08:48:53;102832.34;;;1.80;100.00
68594;BME280;55563;52.416;13.548;2023-02-28T08:50:59;102832.41;;;1.70;100.00
68594;BME280;55563;52.416;13.548;2023-02-28T08:53:00;102834.81;;;1.81;100.00
68594;BME280;55563;52.416;13.548;2023-02-28T08:55:01;102835.47;;;1.83;100.00
68594;BME280;55563;52.416;13.548;2023-02-28T08:57:03;102826.97;;;1.91;100.00
68594;BME280;55563;52.416;13.548;2023-02-28T08:59:03;102833.84;;;1.82;100.00
68594;BME280;55563;52.416;13.548;2023-02-28T09:01:15;102830.00;;;1.86;100.00
68594;BME280;55563;52.416;13.548;2023-02-28T09:03:17;102835.84;;;1.88;100.00
68594;BME280;55563;52.416;13.548;2023-02-28T09:05:17;102834.44;;;1.94;100.00
68594;BME280;55563;52.416;13.548;2023-02-28T09:07:18;102832.59;;;1.86;100.00
68594;BME280;55563;52.416;13.548;2023-02-28T09:09:19;102829.31;;;1.84;100.00
68594;BME280;55563;52.416;13.548;2023-02-28T09:11:20;102837.91;;;1.85;100.00
68594;BME280;55563;52.416;13.548;2023-02-28T09:13:20;102839.09;;;1.90;100.00
68594;BME280;55563;52.416;13.548;2023-02-28T09:15:21;102843.84;;;1.95;100.00
68594;BME280;55563;52.416;13.548;2023-02-28T09:17:23;102834.13;;;1.97;100.00
68594;BME280;55563;52.416;13.548;2023-02-28T09:19:23;102826.44;;;2.05;100.00
68594;BME280;55563;52.416;13.548;2023-02-28T09:21:24;102831.47;;;2.06;98.11
68594;BME280;55563;52.416;13.548;2023-02-28T09:23:25;102826.50;;;2.13;98.64
68594;BME280;55563;52.416;13.548;2023-02-28T09:25:27;102832.44;;;2.23;99.03
68594;BME280;55563;52.416;13.548;2023-02-28T09:27:27;102827.94;;;2.25;92.17
68594;BME280;55563;52.416;13.548;2023-02-28T09:29:28;102831.47;;;2.24;87.86
68594;BME280;55563;52.416;13.548;2023-02-28T09:31:29;102832.75;;;2.20;87.15
68594;BME280;55563;52.416;13.548;2023-02-28T09:33:30;102827.56;;;2.20;88.53
68594;BME280;55563;52.416;13.548;2023-02-28T09:35:31;102830.53;;;2.25;91.78
68594;BME280;55563;52.416;13.548;2023-02-28T09:37:32;102828.56;;;2.27;96.37
68594;BME280;55563;52.416;13.548;2023-02-28T09:39:33;102828.53;;;2.45;87.02
68594;BME280;55563;52.416;13.548;2023-02-28T09:41:38;102825.66;;;2.48;87.65
68594;BME280;55563;52.416;13.548;2023-02-28T09:43:52;102826.69;;;2.55;82.32
68594;BME280;55563;52.416;13.548;2023-02-28T09:46:02;102827.13;;;2.68;79.45
68594;BME280;55563;52.416;13.548;2023-02-28T09:48:12;102831.84;;;2.73;79.00
68594;BME280;55563;52.416;13.548;2023-02-28T09:50:40;102829.50;;;2.61;83.76
68594;BME280;55563;52.416;13.548;2023-02-28T09:52:43;102820.69;;;2.80;81.96
68594;BME280;55563;52.416;13.548;2023-02-28T09:54:48;102830.63;;;2.85;85.61
68594;BME280;55563;52.416;13.548;2023-02-28T09:56:57;102829.41;;;2.97;80.80
68594;BME280;55563;52.416;13.548;2023-02-28T09:59:37;102836.53;;;2.95;74.79
68594;BME280;55563;52.416;13.548;2023-02-28T10:01:33;102825.06;;;2.80;79.84
68594;BME280;55563;52.416;13.548;2023-02-28T10:03:39;102822.41;;;2.97;78.22
68594;BME280;55563;52.416;13.548;2023-02-28T10:05:49;102825.31;;;3.28;74.83
68594;BME280;55563;52.416;13.548;2023-02-28T10:10:20;102825.78;;;3.24;75.46
68594;BME280;55563;52.416;13.548;2023-02-28T10:12:24;102828.28;;;3.41;74.32
68594;BME280;55563;52.416;13.548;2023-02-28T10:14:28;102831.22;;;3.46;75.63
68594;BME280;55563;52.416;13.548;2023-02-28T10:16:36;102817.16;;;3.65;77.19
68594;BME280;55563;52.416;13.548;2023-02-28T10:18:43;102829.03;;;3.76;73.87
68594;BME280;55563;52.416;13.548;2023-02-28T10:20:47;102820.28;;;3.77;76.23
68594;BME280;55563;52.416;13.548;2023-02-28T10:23:25;102817.22;;;3.98;70.38
68594;BME280;55563;52.416;13.548;2023-02-28T10:25:29;102818.69;;;3.92;68.57
68594;BME280;55563;52.416;13.548;2023-02-28T10:27:31;102820.13;;;3.86;67.52
68594;BME280;55563;52.416;13.548;2023-02-28T10:29:33;102818.47;;;3.69;64.77
68594;BME280;55563;52.416;13.548;2023-02-28T10:31:33;102815.56;;;3.80;70.00
68594;BME280;55563;52.416;13.548;2023-02-28T10:33:35;102819.50;;;4.09;68.13
68594;BME280;55563;52.416;13.548;2023-02-28T10:35:35;102817.72;;;4.09;65.07
68594;BME280;55563;52.416;13.548;2023-02-28T10:37:38;102817.72;;;4.09;63.78
68594;BME280;55563;52.416;13.548;2023-02-28T10:39:42;102824.53;;;4.02;64.36
68594;BME280;55563;52.416;13.548;2023-02-28T10:41:44;102829.09;;;4.08;65.37
68594;BME280;55563;52.416;13.548;2023-02-28T10:43:45;102823.72;;;4.10;63.45
68594;BME280;55563;52.416;13.548;2023-02-28T10:45:56;102825.84;;;4.22;63.81
68594;BME280;55563;52.416;13.548;2023-02-28T10:48:02;102817.38;;;4.28;63.25
68594;BME280;55563;52.416;13.548;2023-02-28T10:50:05;102816.25;;;4.07;70.14
68594;BME280;55563;52.416;13.548;2023-02-28T10:52:09;102813.63;;;4.47;64.22
68594;BME280;55563;52.416;13.548;2023-02-28T10:54:22;102806.34;;;4.26;63.13
68594;BME280;55563;52.416;13.548;2023-02-28T10:56:24;102816.41;;;4.46;64.20